Time;durP1;ratioP1;P1;durP2;ratioP2;P2;SDS_P1;SDS_P2;PMS_P1;PMS_P2;Temp;Humidity;BMP_temperature;BMP_pressure;BME280_temperature;BME280_humidity;BME280_pressure;Samples;Min_cycle;Max_cycle;Signal;HPM_P1;HPM_P2
2021/08/06 00:00:58;;;;;;;0.53;0.42;;;17.40;99.90;;;;;;2034325;70;21058;-74
2021/08/06 00:03:25;;;;;;;1.60;0.30;;;17.50;99.90;;;;;;2034355;70;21163;-74
2021/08/06 00:05:54;;;;;;;3.22;0.23;;;17.40;99.90;;;;;;2032651;70;21139;-74
2021/08/06 00:08:19;;;;;;;2.52;0.50;;;17.40;99.90;;;;;;2022432;70;21084;-74
2021/08/06 00:10:45;;;;;;;0.40;0.40;;;17.30;99.90;;;;;;2033447;70;21097;-74
2021/08/06 00:13:11;;;;;;;4.75;0.50;;;17.20;99.90;;;;;;2017479;69;21129;-74
2021/08/06 00:15:37;;;;;;;0.50;0.50;;;17.20;99.90;;;;;;2034552;69;21112;-74
2021/08/06 00:18:03;;;;;;;0.75;0.53;;;17.20;99.90;;;;;;2034329;70;21043;-74
2021/08/06 00:20:29;;;;;;;0.40;0.40;;;17.10;99.90;;;;;;2034434;70;21120;-74
2021/08/06 00:22:56;;;;;;;0.30;0.30;;;17.00;99.90;;;;;;2034456;70;21090;-74
2021/08/06 00:25:22;;;;;;;0.72;0.50;;;17.00;99.90;;;;;;2034360;70;21495;-74
2021/08/06 00:27:48;;;;;;;0.80;0.53;;;16.80;99.90;;;;;;2034323;70;21431;-74
2021/08/06 00:30:14;;;;;;;1.27;0.65;;;16.70;99.90;;;;;;2034351;70;21086;-74
2021/08/06 00:32:40;;;;;;;0.35;0.35;;;16.80;99.90;;;;;;2034340;70;21096;-74
2021/08/06 00:35:07;;;;;;;2.33;0.50;;;16.70;99.90;;;;;;2034355;70;21043;-75
2021/08/06 00:37:33;;;;;;;2.05;0.50;;;16.60;99.90;;;;;;2034384;70;21089;-74
2021/08/06 00:39:59;;;;;;;0.37;0.37;;;16.60;99.90;;;;;;2034339;70;21046;-74
2021/08/06 00:42:25;;;;;;;1.05;0.60;;;16.50;99.90;;;;;;2034340;70;21155;-74
2021/08/06 00:44:51;;;;;;;0.95;0.50;;;16.60;99.90;;;;;;2034321;70;21118;-74
2021/08/06 00:47:17;;;;;;;0.50;0.50;;;16.50;99.90;;;;;;2034472;70;21120;-74
2021/08/06 00:49:43;;;;;;;1.15;0.50;;;16.50;99.90;;;;;;2034556;70;21020;-74
2021/08/06 00:52:10;;;;;;;0.85;0.70;;;16.50;99.90;;;;;;2037970;70;21129;-73
2021/08/06 00:54:36;;;;;;;3.12;0.60;;;16.40;99.90;;;;;;2037588;69;21045;-73
2021/08/06 00:57:02;;;;;;;2.27;0.60;;;16.30;99.90;;;;;;2034760;69;21128;-74
2021/08/06 00:59:28;;;;;;;2.10;0.62;;;16.40;99.90;;;;;;2034486;70;21046;-74
2021/08/06 01:01:55;;;;;;;0.98;0.60;;;16.50;99.90;;;;;;2034546;70;21066;-74
2021/08/06 01:04:21;;;;;;;1.87;0.40;;;16.60;99.90;;;;;;2034325;70;21046;-74
2021/08/06 01:06:47;;;;;;;0.47;0.47;;;16.60;99.90;;;;;;2034539;70;21079;-74
2021/08/06 01:09:13;;;;;;;1.25;0.60;;;16.60;99.90;;;;;;2034372;70;21112;-74
2021/08/06 01:11:39;;;;;;;1.12;0.90;;;16.50;99.90;;;;;;2034465;70;21015;-74
2021/08/06 01:14:06;;;;;;;0.85;0.50;;;16.40;99.90;;;;;;2034445;70;21089;-74
2021/08/06 01:16:32;;;;;;;1.45;0.55;;;16.50;99.90;;;;;;2034329;70;21494;-74
2021/08/06 01:18:58;;;;;;;1.22;0.60;;;16.50;99.90;;;;;;2034776;70;21512;-74
2021/08/06 01:21:24;;;;;;;1.25;0.70;;;16.40;99.90;;;;;;2034319;70;21439;-74
2021/08/06 01:23:50;;;;;;;0.47;0.47;;;16.30;99.90;;;;;;2034317;70;21007;-74
2021/08/06 01:26:17;;;;;;;1.22;0.53;;;16.20;99.90;;;;;;2034529;70;21039;-74
2021/08/06 01:28:43;;;;;;;0.53;0.53;;;16.20;99.90;;;;;;2034640;70;21119;-74
2021/08/06 01:31:09;;;;;;;0.40;0.40;;;16.20;99.90;;;;;;2034637;70;21042;-74
2021/08/06 01:33:35;;;;;;;0.90;0.68;;;16.20;99.90;;;;;;2034641;70;21160;-74
2021/08/06 01:36:01;;;;;;;1.45;0.42;;;16.20;99.90;;;;;;2034665;70;21035;-74
2021/08/06 01:38:27;;;;;;;1.40;0.57;;;16.20;99.90;;;;;;2034633;69;21051;-74
2021/08/06 01:40:53;;;;;;;1.70;0.68;;;16.20;99.90;;;;;;2034587;70;21054;-74
2021/08/06 01:43:20;;;;;;;0.93;0.70;;;16.20;99.90;;;;;;2034640;70;21043;-74
2021/08/06 01:45:46;;;;;;;1.90;0.70;;;16.20;99.90;;;;;;2034316;70;21070;-74
2021/08/06 01:48:12;;;;;;;0.55;0.55;;;16.20;99.90;;;;;;2034535;70;21079;-74
2021/08/06 01:50:38;;;;;;;1.10;0.60;;;16.20;99.90;;;;;;2034274;70;21039;-74
2021/08/06 01:53:05;;;;;;;0.82;0.50;;;16.20;99.90;;;;;;2034533;69;21163;-74
2021/08/06 01:55:31;;;;;;;0.70;0.70;;;16.20;99.90;;;;;;2034275;70;21062;-74
2021/08/06 01:57:57;;;;;;;3.65;1.00;;;16.20;99.90;;;;;;2034545;70;21079;-74
2021/08/06 02:00:23;;;;;;;1.50;0.78;;;16.20;99.90;;;;;;2034264;70;21120;-74
2021/08/06 02:02:49;;;;;;;3.37;1.00;;;16.20;99.90;;;;;;2034540;70;21120;-74
2021/08/06 02:05:15;;;;;;;7.40;0.80;;;16.20;99.90;;;;;;2034320;70;21101;-74
2021/08/06 02:07:41;;;;;;;0.80;0.80;;;16.10;99.90;;;;;;2034521;70;21169;-74
2021/08/06 02:10:07;;;;;;;1.17;0.70;;;16.00;99.90;;;;;;2034389;70;21038;-74
2021/08/06 02:12:34;;;;;;;1.40;0.78;;;16.00;99.90;;;;;;2034533;70;21050;-74
2021/08/06 02:15:00;;;;;;;1.17;0.57;;;16.00;99.90;;;;;;2034318;70;21076;-74
2021/08/06 02:17:26;;;;;;;1.17;0.62;;;16.10;99.90;;;;;;2034615;70;21042;-74
2021/08/06 02:19:52;;;;;;;3.27;0.78;;;16.00;99.90;;;;;;2034285;70;21083;-74
2021/08/06 02:22:18;;;;;;;2.20;0.60;;;16.00;99.90;;;;;;2034369;70;21440;-74
2021/08/06 02:24:44;;;;;;;1.65;0.80;;;16.00;99.90;;;;;;2034292;70;21486;-74
2021/08/06 02:27:10;;;;;;;2.98;0.82;;;16.10;99.90;;;;;;2034385;70;21415;-74
2021/08/06 02:29:36;;;;;;;3.20;0.72;;;15.80;99.90;;;;;;2034494;70;21447;-74
2021/08/06 02:32:03;;;;;;;8.85;1.20;;;15.90;99.90;;;;;;2034293;70;21486;-74
2021/08/06 02:34:29;;;;;;;0.70;0.60;;;16.00;99.90;;;;;;2034618;70;21440;-74
2021/08/06 02:36:55;;;;;;;0.85;0.68;;;16.10;99.90;;;;;;2034297;70;21101;-73
2021/08/06 02:39:21;;;;;;;0.72;0.72;;;16.00;99.90;;;;;;2034636;70;21047;-74
2021/08/06 02:41:47;;;;;;;1.05;0.72;;;16.00;99.90;;;;;;2034629;70;21047;-74
2021/08/06 02:44:13;;;;;;;1.17;0.70;;;16.10;99.90;;;;;;2034627;70;21039;-74
2021/08/06 02:46:39;;;;;;;0.82;0.82;;;16.20;99.90;;;;;;2026451;70;21058;-74
2021/08/06 02:49:06;;;;;;;1.10;1.00;;;16.10;99.90;;;;;;2034619;70;21129;-73
2021/08/06 02:51:32;;;;;;;3.65;1.15;;;16.10;99.90;;;;;;2034636;70;21047;-74
2021/08/06 02:53:58;;;;;;;1.27;1.10;;;16.10;99.90;;;;;;2034416;70;21050;-74
2021/08/06 02:56:24;;;;;;;3.15;1.00;;;16.10;99.90;;;;;;2034378;70;21027;-74
2021/08/06 02:58:50;;;;;;;1.80;1.20;;;16.20;99.90;;;;;;2034393;69;21119;-74
2021/08/06 03:01:16;;;;;;;8.38;1.12;;;16.20;99.90;;;;;;2034400;70;21116;-74
2021/08/06 03:03:42;;;;;;;1.05;1.00;;;16.20;99.90;;;;;;2034401;70;21058;-74
2021/08/06 03:06:08;;;;;;;2.83;1.10;;;16.20;99.90;;;;;;2034424;70;21024;-74
2021/08/06 03:08:34;;;;;;;2.15;1.07;;;16.20;99.90;;;;;;2034438;70;21062;-74
2021/08/06 03:11:01;;;;;;;1.92;1.00;;;16.20;99.90;;;;;;2034392;69;21030;-74
2021/08/06 03:13:27;;;;;;;1.87;0.82;;;16.20;99.90;;;;;;2034308;70;21518;-74
2021/08/06 03:15:53;;;;;;;1.82;0.90;;;16.20;99.90;;;;;;2034489;70;21400;-75
2021/08/06 03:18:19;;;;;;;1.95;1.00;;;16.20;99.90;;;;;;2033348;69;21478;-75
2021/08/06 03:20:45;;;;;;;2.47;1.00;;;16.20;99.90;;;;;;2034350;69;21627;-75
2021/08/06 03:23:11;;;;;;;1.47;0.90;;;16.20;99.90;;;;;;2034570;70;21474;-75
2021/08/06 03:25:37;;;;;;;2.72;0.90;;;16.20;99.90;;;;;;2034565;70;21439;-74
2021/08/06 03:28:03;;;;;;;4.22;1.15;;;16.20;99.90;;;;;;2034435;69;21470;-74
2021/08/06 03:30:30;;;;;;;1.85;1.32;;;16.20;99.90;;;;;;2034380;70;21039;-74
2021/08/06 03:32:56;;;;;;;0.80;0.80;;;16.20;99.90;;;;;;2034344;70;21249;-74
2021/08/06 03:35:22;;;;;;;1.60;1.20;;;16.20;99.90;;;;;;2034396;70;21011;-74
2021/08/06 03:37:48;;;;;;;7.10;1.47;;;16.20;99.90;;;;;;2034399;70;21043;-74
2021/08/06 03:40:14;;;;;;;3.22;1.10;;;16.20;99.90;;;;;;2034388;70;21115;-74
2021/08/06 03:42:40;;;;;;;4.08;1.37;;;16.20;99.90;;;;;;2034374;70;21038;-75
2021/08/06 03:45:06;;;;;;;2.30;0.90;;;16.20;99.90;;;;;;2034384;70;21071;-74
2021/08/06 03:47:32;;;;;;;2.10;1.30;;;16.20;99.90;;;;;;2034397;70;21116;-74
2021/08/06 03:49:59;;;;;;;3.10;1.40;;;16.20;99.90;;;;;;2034383;70;21046;-74
2021/08/06 03:52:25;;;;;;;7.95;1.15;;;16.10;99.90;;;;;;2034387;70;21042;-74
2021/08/06 03:54:51;;;;;;;1.77;1.10;;;16.20;99.90;;;;;;2034371;69;20980;-74
2021/08/06 03:57:17;;;;;;;4.67;1.40;;;16.10;99.90;;;;;;2034371;70;21030;-73
2021/08/06 03:59:43;;;;;;;3.40;1.10;;;16.10;99.90;;;;;;2034491;70;21046;-74
2021/08/06 04:02:09;;;;;;;1.87;1.07;;;16.10;99.90;;;;;;2034432;70;21054;-74
2021/08/06 04:04:35;;;;;;;2.62;1.12;;;16.20;99.90;;;;;;2034449;70;21144;-74
2021/08/06 04:07:01;;;;;;;2.12;1.27;;;16.10;99.90;;;;;;2034472;70;21116;-74
2021/08/06 04:09:28;;;;;;;3.80;1.10;;;16.20;99.90;;;;;;2034356;70;21042;-74
2021/08/06 04:11:54;;;;;;;2.25;1.30;;;16.30;99.90;;;;;;2034342;70;21035;-74
2021/08/06 04:14:20;;;;;;;6.70;1.80;;;16.20;99.90;;;;;;2034348;70;21019;-74
2021/08/06 04:16:48;;;;;;;1.67;1.30;;;16.20;99.90;;;;;;2034474;70;21078;-74
2021/08/06 04:19:14;;;;;;;8.40;1.50;;;16.20;99.90;;;;;;2034433;70;21087;-74
2021/08/06 04:21:40;;;;;;;2.22;1.37;;;16.20;99.90;;;;;;2034321;70;21166;-74
2021/08/06 04:24:06;;;;;;;4.50;1.20;;;16.30;99.90;;;;;;2034429;70;21020;-74
2021/08/06 04:26:32;;;;;;;1.45;1.20;;;16.30;99.90;;;;;;2034427;70;21054;-74
2021/08/06 04:28:58;;;;;;;2.90;1.07;;;16.30;99.90;;;;;;2034465;70;21043;-74
2021/08/06 04:31:24;;;;;;;1.32;1.10;;;16.20;99.90;;;;;;2034449;70;21048;-74
2021/08/06 04:33:51;;;;;;;5.65;1.15;;;16.20;99.90;;;;;;2034233;70;21060;-74
2021/08/06 04:36:17;;;;;;;5.67;1.02;;;16.30;99.90;;;;;;2034385;70;21164;-74
2021/08/06 04:38:43;;;;;;;2.47;1.10;;;16.20;99.90;;;;;;2034201;70;21075;-74
2021/08/06 04:41:09;;;;;;;1.20;1.10;;;16.30;99.90;;;;;;2034428;70;21127;-75
2021/08/06 04:43:35;;;;;;;1.80;1.20;;;16.30;99.90;;;;;;2034239;70;21068;-74
2021/08/06 04:46:01;;;;;;;2.27;1.30;;;16.30;99.90;;;;;;2034394;70;21042;-74
2021/08/06 04:48:27;;;;;;;2.65;1.37;;;16.30;99.90;;;;;;2034216;70;21079;-74
2021/08/06 04:50:53;;;;;;;3.65;1.27;;;16.30;99.90;;;;;;2034437;70;21059;-73
2021/08/06 04:53:20;;;;;;;3.22;1.50;;;16.30;99.90;;;;;;2034356;70;21082;-73
2021/08/06 04:55:46;;;;;;;3.20;1.62;;;16.30;99.90;;;;;;2034320;70;21546;-74
2021/08/06 04:58:12;;;;;;;1.57;1.47;;;16.20;99.90;;;;;;2034317;70;21448;-74
2021/08/06 05:00:38;;;;;;;1.60;1.22;;;16.20;99.90;;;;;;2034301;70;21561;-72
2021/08/06 05:03:04;;;;;;;2.10;1.30;;;16.30;99.90;;;;;;2034324;70;21507;-72
2021/08/06 05:05:30;;;;;;;1.75;1.37;;;16.40;99.90;;;;;;2034303;70;21470;-73
2021/08/06 05:07:56;;;;;;;9.55;1.45;;;16.20;99.90;;;;;;2034518;70;21647;-73
2021/08/06 05:10:22;;;;;;;2.42;1.25;;;16.30;99.90;;;;;;2034329;70;21042;-73
2021/08/06 05:12:48;;;;;;;3.00;1.15;;;16.20;99.90;;;;;;2034419;69;21045;-74
2021/08/06 05:15:15;;;;;;;2.17;1.07;;;16.20;99.90;;;;;;2034301;70;21048;-73
2021/08/06 05:17:41;;;;;;;2.20;1.30;;;16.10;99.90;;;;;;2034305;70;21149;-74
2021/08/06 05:20:07;;;;;;;2.15;1.20;;;16.10;99.90;;;;;;2034320;70;21083;-74
2021/08/06 05:22:33;;;;;;;1.17;1.10;;;16.20;99.90;;;;;;2034360;70;21042;-74
2021/08/06 05:24:59;;;;;;;7.70;1.50;;;16.20;99.90;;;;;;2034297;70;21072;-74
2021/08/06 05:27:25;;;;;;;1.77;1.27;;;16.20;99.90;;;;;;2034304;70;21075;-74
2021/08/06 05:29:51;;;;;;;5.58;1.20;;;16.20;99.90;;;;;;2034276;70;21039;-74
2021/08/06 05:32:17;;;;;;;1.62;1.20;;;16.20;99.90;;;;;;2034323;70;21071;-74
2021/08/06 05:34:44;;;;;;;2.98;1.52;;;16.10;99.90;;;;;;2034419;69;21042;-74
2021/08/06 05:37:10;;;;;;;1.72;1.37;;;16.10;99.90;;;;;;2034514;70;21039;-74
2021/08/06 05:39:36;;;;;;;1.85;1.22;;;16.20;99.90;;;;;;2034519;69;21167;-74
2021/08/06 05:42:02;;;;;;;3.00;1.60;;;16.10;99.90;;;;;;2034498;70;21046;-76
2021/08/06 05:44:28;;;;;;;1.52;1.40;;;16.10;99.90;;;;;;2036853;70;21028;-76
2021/08/06 05:46:54;;;;;;;5.12;1.87;;;16.10;99.90;;;;;;2037852;70;21016;-75
2021/08/06 05:49:20;;;;;;;1.32;1.20;;;16.20;99.90;;;;;;2036900;70;21032;-75
2021/08/06 05:51:46;;;;;;;2.20;1.60;;;16.20;99.90;;;;;;2025633;69;21107;-75
2021/08/06 05:54:13;;;;;;;1.92;1.47;;;16.20;99.90;;;;;;1982897;71;21117;-76
2021/08/06 05:56:39;;;;;;;1.07;1.00;;;16.30;99.90;;;;;;2025350;70;21058;-75
2021/08/06 05:59:05;;;;;;;1.85;1.37;;;16.40;99.90;;;;;;2034354;70;21023;-76
2021/08/06 06:01:31;;;;;;;2.35;1.32;;;16.40;99.90;;;;;;2034422;70;21131;-77
2021/08/06 06:03:57;;;;;;;4.90;1.17;;;16.50;99.90;;;;;;2034433;70;21070;-76
2021/08/06 06:06:23;;;;;;;1.65;1.50;;;16.40;99.90;;;;;;2024920;69;21058;-76
2021/08/06 06:08:50;;;;;;;2.50;1.40;;;16.30;99.90;;;;;;2034521;70;21050;-78
2021/08/06 06:11:16;;;;;;;4.70;1.50;;;16.60;99.90;;;;;;2034535;69;21050;-76
2021/08/06 06:13:42;;;;;;;6.72;1.17;;;16.70;99.90;;;;;;2034494;69;21007;-76
2021/08/06 06:16:08;;;;;;;1.07;1.05;;;16.80;99.90;;;;;;2034499;70;21439;-75
2021/08/06 06:18:34;;;;;;;2.65;1.52;;;16.80;99.90;;;;;;2034372;70;21068;-75
2021/08/06 06:21:00;;;;;;;1.85;1.50;;;16.80;99.90;;;;;;2034365;70;21152;-75
2021/08/06 06:23:27;;;;;;;5.83;1.65;;;16.80;99.90;;;;;;2034591;70;21090;-76
2021/08/06 06:25:53;;;;;;;1.42;1.32;;;16.80;99.90;;;;;;2034371;70;21120;-75
2021/08/06 06:28:19;;;;;;;1.55;1.17;;;16.90;99.90;;;;;;2034514;70;21063;-76
2021/08/06 06:30:45;;;;;;;1.98;1.30;;;17.00;99.90;;;;;;2034465;70;21184;-76
2021/08/06 06:33:11;;;;;;;1.75;1.20;;;17.20;99.90;;;;;;2034526;70;21120;-76
2021/08/06 06:35:37;;;;;;;3.35;1.50;;;17.20;99.90;;;;;;2034521;70;21052;-76
2021/08/06 06:38:03;;;;;;;1.82;1.42;;;17.30;99.90;;;;;;2034394;69;21023;-76
2021/08/06 06:40:29;;;;;;;1.67;1.12;;;17.50;99.90;;;;;;2034364;70;21050;-78
2021/08/06 06:42:55;;;;;;;5.42;2.08;;;17.70;99.90;;;;;;2034373;70;21054;-78
2021/08/06 06:45:22;;;;;;;2.80;1.50;;;18.00;99.90;;;;;;2034413;70;21027;-79
2021/08/06 06:47:48;;;;;;;4.72;1.92;;;18.20;99.90;;;;;;2034388;70;21024;-78
2021/08/06 06:50:14;;;;;;;1.75;1.20;;;18.60;99.90;;;;;;2034331;70;21043;-78
2021/08/06 06:52:40;;;;;;;1.90;1.07;;;18.80;99.90;;;;;;2034342;70;21116;-78
2021/08/06 06:55:06;;;;;;;5.30;1.40;;;18.90;99.90;;;;;;2034367;70;21149;-78
2021/08/06 06:57:32;;;;;;;4.47;1.25;;;18.80;99.90;;;;;;2034373;70;21050;-78
2021/08/06 06:59:59;;;;;;;1.07;1.00;;;18.70;99.90;;;;;;2034349;69;21019;-78
2021/08/06 07:02:25;;;;;;;2.58;1.07;;;18.60;99.90;;;;;;2034277;70;21055;-79
2021/08/06 07:04:51;;;;;;;4.12;0.98;;;18.80;99.90;;;;;;2034300;69;21047;-78
2021/08/06 07:07:17;;;;;;;3.70;1.00;;;18.80;99.90;;;;;;2034352;70;21050;-78
2021/08/06 07:09:43;;;;;;;1.30;1.10;;;19.10;99.90;;;;;;2034560;70;21078;-78
2021/08/06 07:12:09;;;;;;;2.00;1.27;;;19.40;99.90;;;;;;2034361;70;21116;-78
2021/08/06 07:14:35;;;;;;;1.20;0.80;;;20.10;99.90;;;;;;2034437;70;21047;-79
2021/08/06 07:17:01;;;;;;;2.92;0.95;;;20.20;99.90;;;;;;2034482;70;21125;-79
2021/08/06 07:19:28;;;;;;;1.02;0.90;;;20.50;99.90;;;;;;2034551;70;21050;-78
2021/08/06 07:21:54;;;;;;;2.27;2.02;;;20.10;99.90;;;;;;2034334;70;21054;-78
2021/08/06 07:24:20;;;;;;;1.00;0.90;;;20.00;99.90;;;;;;2034481;70;21050;-78
2021/08/06 07:26:46;;;;;;;1.22;0.80;;;19.70;99.90;;;;;;2034437;70;21079;-78
2021/08/06 07:29:12;;;;;;;1.62;0.80;;;19.60;99.90;;;;;;2034482;69;21017;-78
2021/08/06 07:31:38;;;;;;;4.22;1.07;;;19.60;99.90;;;;;;2034364;70;21050;-78
2021/08/06 07:34:04;;;;;;;8.15;0.98;;;19.40;99.90;;;;;;2034377;70;21054;-79
2021/08/06 07:36:30;;;;;;;1.52;1.00;;;19.70;99.90;;;;;;2034397;70;21058;-78
2021/08/06 07:38:57;;;;;;;2.30;0.95;;;19.80;99.90;;;;;;2034322;69;21082;-79
2021/08/06 07:41:23;;;;;;;1.80;1.22;;;19.70;99.90;;;;;;2034249;70;21066;-79
2021/08/06 07:43:49;;;;;;;1.37;0.90;;;19.60;99.90;;;;;;2034378;70;21058;-78
2021/08/06 07:46:16;;;;;;;1.25;1.00;;;19.40;99.90;;;;;;2034443;69;20991;-79
2021/08/06 07:48:42;;;;;;;0.72;0.70;;;19.40;99.90;;;;;;2034340;70;21027;-78
2021/08/06 07:51:08;;;;;;;0.88;0.82;;;19.30;99.90;;;;;;2034458;70;21051;-78
2021/08/06 07:53:34;;;;;;;0.90;0.90;;;19.00;99.90;;;;;;2034457;70;21124;-78
2021/08/06 07:56:00;;;;;;;4.87;1.10;;;18.90;99.90;;;;;;2034480;70;21128;-79
2021/08/06 07:58:26;;;;;;;2.08;1.00;;;19.10;99.90;;;;;;2034401;70;21062;-79
2021/08/06 08:00:53;;;;;;;2.05;1.02;;;19.30;99.90;;;;;;2034338;70;21048;-79
2021/08/06 08:03:19;;;;;;;1.02;0.90;;;19.60;99.90;;;;;;2034213;70;21531;-79
2021/08/06 08:05:45;;;;;;;1.27;1.10;;;20.00;99.90;;;;;;2034468;70;21516;-79
2021/08/06 08:08:11;;;;;;;4.33;1.05;;;19.90;99.90;;;;;;2034385;70;21465;-79
2021/08/06 08:10:38;;;;;;;0.93;0.70;;;19.80;99.90;;;;;;2034347;70;21116;-77
2021/08/06 08:13:04;;;;;;;4.42;0.80;;;19.90;99.90;;;;;;2034584;70;21047;-78
2021/08/06 08:15:30;;;;;;;2.10;0.70;;;19.70;99.90;;;;;;2034550;70;21124;-78
2021/08/06 08:17:56;;;;;;;0.72;0.72;;;19.50;99.90;;;;;;2034535;70;21159;-78
2021/08/06 08:20:22;;;;;;;2.65;0.78;;;19.10;99.90;;;;;;2034311;70;21014;-77
2021/08/06 08:22:48;;;;;;;0.82;0.80;;;18.60;99.90;;;;;;2034290;70;21447;-77
2021/08/06 08:25:15;;;;;;;2.52;0.78;;;18.20;99.90;;;;;;2034576;70;21450;-77
2021/08/06 08:27:41;;;;;;;0.93;0.60;;;17.90;99.90;;;;;;2034456;70;21414;-77
2021/08/06 08:30:07;;;;;;;1.50;0.40;;;17.80;99.90;;;;;;2034258;69;21615;-77
2021/08/06 08:32:33;;;;;;;0.85;0.70;;;17.80;99.90;;;;;;2034307;70;21055;-78
2021/08/06 08:34:59;;;;;;;5.85;0.75;;;18.00;99.90;;;;;;2035187;70;21023;-85
2021/08/06 08:37:25;;;;;;;0.50;0.50;;;18.20;99.90;;;;;;2035365;70;21024;-81
2021/08/06 08:39:51;;;;;;;1.07;0.30;;;18.40;99.90;;;;;;2035025;70;21046;-89
2021/08/06 08:42:18;;;;;;;1.98;0.70;;;18.60;99.90;;;;;;2035696;69;21056;-83
2021/08/06 08:44:44;;;;;;;0.85;0.50;;;18.80;99.90;;;;;;2034900;70;21024;-76
2021/08/06 08:47:11;;;;;;;0.65;0.65;;;18.90;99.90;;;;;;2034566;70;21398;-76
2021/08/06 08:49:37;;;;;;;1.10;0.80;;;19.20;99.90;;;;;;2034375;70;21110;-78
2021/08/06 08:52:03;;;;;;;1.62;0.68;;;19.40;99.90;;;;;;2034463;70;21152;-79
2021/08/06 08:54:29;;;;;;;0.50;0.50;;;19.70;99.90;;;;;;2034578;70;21038;-86
2021/08/06 08:56:56;;;;;;;0.60;0.60;;;19.90;99.90;;;;;;2035089;69;21072;-83
2021/08/06 08:59:22;;;;;;;1.55;0.70;;;20.00;99.90;;;;;;2034809;70;21164;-83
2021/08/06 09:01:48;;;;;;;1.75;0.70;;;20.10;99.90;;;;;;2030701;70;21027;-84
2021/08/06 09:04:14;;;;;;;1.22;0.60;;;20.10;99.90;;;;;;2034719;70;21054;-83
2021/08/06 09:06:40;;;;;;;2.92;0.70;;;20.30;99.90;;;;;;2035636;69;21020;-79
2021/08/06 09:09:06;;;;;;;0.70;0.50;;;20.50;99.90;;;;;;2028932;70;21164;-80
2021/08/06 09:11:32;;;;;;;0.60;0.60;;;20.70;99.90;;;;;;2034363;70;21100;-78
2021/08/06 09:13:58;;;;;;;1.70;0.60;;;20.80;99.90;;;;;;2034897;70;21066;-78
2021/08/06 09:16:24;;;;;;;0.62;0.60;;;20.80;99.90;;;;;;2034825;70;21019;-73
2021/08/06 09:18:51;;;;;;;2.62;0.50;;;20.70;99.90;;;;;;2034556;70;21127;-78
2021/08/06 09:21:21;;;;;;;1.50;0.60;;;21.00;99.90;;;;;;2034807;70;21599;-79
2021/08/06 09:23:45;;;;;;;6.22;0.60;;;20.80;99.90;;;;;;2032614;70;21149;-83
2021/08/06 09:26:11;;;;;;;1.40;0.50;;;20.80;99.90;;;;;;2034344;70;20996;-77
2021/08/06 09:28:37;;;;;;;1.22;0.68;;;20.80;99.90;;;;;;2034271;70;21089;-77
2021/08/06 09:31:03;;;;;;;0.95;0.50;;;20.90;99.90;;;;;;2034345;70;21054;-77
2021/08/06 09:33:29;;;;;;;2.55;0.50;;;21.00;99.90;;;;;;2034348;70;21046;-76
2021/08/06 09:35:56;;;;;;;2.27;0.60;;;21.00;99.90;;;;;;2034304;70;21043;-74
2021/08/06 09:38:22;;;;;;;3.05;0.80;;;20.70;99.90;;;;;;2034287;69;21034;-76
2021/08/06 09:40:48;;;;;;;2.00;0.68;;;20.90;99.90;;;;;;2034963;70;21109;-86
2021/08/06 09:43:14;;;;;;;1.30;0.65;;;21.30;99.90;;;;;;2036376;69;21144;-85
2021/08/06 09:45:41;;;;;;;1.12;0.55;;;21.40;99.90;;;;;;2036935;70;21097;-87
2021/08/06 09:48:08;;;;;;;1.12;0.55;;;21.60;99.90;;;;;;2036794;69;21142;-85
2021/08/06 09:50:34;;;;;;;2.20;0.80;;;21.70;99.90;;;;;;2036717;70;21569;-87
2021/08/06 09:53:00;;;;;;;0.70;0.62;;;22.00;99.90;;;;;;2036342;69;21487;-85
2021/08/06 09:55:26;;;;;;;0.75;0.50;;;21.90;99.90;;;;;;2036442;70;21420;-87
2021/08/06 09:57:52;;;;;;;0.85;0.85;;;22.20;99.90;;;;;;2036409;70;21593;-88
2021/08/06 10:00:19;;;;;;;0.68;0.57;;;22.10;99.90;;;;;;2036178;69;21112;-86
2021/08/06 10:02:45;;;;;;;1.32;0.88;;;22.00;99.90;;;;;;2036162;70;21075;-88
2021/08/06 10:05:11;;;;;;;2.20;0.70;;;22.00;99.90;;;;;;2036390;70;21059;-87
2021/08/06 10:07:37;;;;;;;0.60;0.57;;;22.30;99.90;;;;;;2036485;69;21118;-86
2021/08/06 10:10:03;;;;;;;0.82;0.50;;;22.50;99.90;;;;;;2036405;69;21101;-87
2021/08/06 10:12:29;;;;;;;3.35;0.80;;;22.80;99.90;;;;;;2037272;70;21068;-87
2021/08/06 10:14:55;;;;;;;3.05;0.60;;;22.90;99.90;;;;;;2036247;70;21448;-86
2021/08/06 10:17:22;;;;;;;0.75;0.40;;;23.00;99.90;;;;;;2036011;70;21153;-86
2021/08/06 10:19:48;;;;;;;0.78;0.57;;;23.30;99.90;;;;;;2037646;69;21059;-87
2021/08/06 10:22:15;;;;;;;0.60;0.53;;;23.20;99.90;;;;;;2036459;70;21164;-86
2021/08/06 10:24:41;;;;;;;1.37;0.72;;;23.10;99.90;;;;;;2036648;70;21059;-86
2021/08/06 10:27:07;;;;;;;5.85;0.62;;;23.00;99.90;;;;;;2036177;69;21090;-85
2021/08/06 10:29:34;;;;;;;1.00;0.85;;;23.60;99.90;;;;;;2036272;70;21055;-86
2021/08/06 10:32:00;;;;;;;1.05;0.53;;;23.60;99.90;;;;;;2036118;70;21068;-85
2021/08/06 10:34:26;;;;;;;1.80;0.55;;;23.70;99.90;;;;;;2037244;69;21037;-86
2021/08/06 10:36:52;;;;;;;12.53;0.62;;;23.50;99.90;;;;;;2038014;69;21004;-86
2021/08/06 10:39:18;;;;;;;0.47;0.42;;;23.00;99.90;;;;;;2036767;69;21102;-86
2021/08/06 10:41:44;;;;;;;0.93;0.40;;;22.70;99.90;;;;;;2036160;70;21058;-85
2021/08/06 10:44:10;;;;;;;1.67;0.50;;;22.40;99.90;;;;;;2036296;69;21071;-86
2021/08/06 10:46:36;;;;;;;2.85;0.60;;;22.30;99.90;;;;;;2036226;69;21079;-86
2021/08/06 10:49:03;;;;;;;0.55;0.50;;;22.20;99.90;;;;;;2036209;70;21109;-86
2021/08/06 10:51:29;;;;;;;1.75;0.53;;;22.20;99.90;;;;;;2036334;70;21028;-87
2021/08/06 10:53:55;;;;;;;1.02;0.40;;;22.20;99.90;;;;;;2036390;70;21032;-88
2021/08/06 10:56:29;;;;;;;0.75;0.60;;;22.20;99.90;;;;;;2036446;70;21033;-88
2021/08/06 10:58:55;;;;;;;0.40;0.40;;;22.10;99.90;;;;;;2036342;70;21087;-86
2021/08/06 11:01:21;;;;;;;1.20;0.62;;;22.20;99.90;;;;;;2036467;70;21092;-87
2021/08/06 11:03:53;;;;;;;0.90;0.70;;;22.30;99.90;;;;;;2036261;70;21115;-87
2021/08/06 11:06:15;;;;;;;0.55;0.40;;;22.10;99.90;;;;;;2035173;70;21085;-88
2021/08/06 11:08:41;;;;;;;1.07;0.57;;;22.10;99.90;;;;;;2036331;70;21113;-86
2021/08/06 11:11:07;;;;;;;0.82;0.50;;;22.00;99.90;;;;;;2036362;70;21216;-88
2021/08/06 11:13:33;;;;;;;1.47;0.50;;;21.90;99.90;;;;;;2036319;69;21020;-88
2021/08/06 11:16:00;;;;;;;2.15;0.75;;;21.80;99.90;;;;;;2020248;70;21580;-88
2021/08/06 11:18:26;;;;;;;0.70;0.50;;;21.70;99.90;;;;;;2036351;70;21490;-88
2021/08/06 11:20:52;;;;;;;1.70;0.70;;;21.60;99.90;;;;;;2036778;70;21011;-88
2021/08/06 11:23:18;;;;;;;2.50;0.72;;;21.50;99.90;;;;;;2036439;69;21047;-88
2021/08/06 11:25:44;;;;;;;0.33;0.33;;;21.30;99.90;;;;;;2036614;70;21527;-88
2021/08/06 11:28:10;;;;;;;1.85;0.70;;;21.50;99.90;;;;;;2028477;70;21526;-87
2021/08/06 11:30:38;;;;;;;1.10;0.50;;;21.30;99.90;;;;;;2036698;70;21004;-87
2021/08/06 11:33:04;;;;;;;0.93;0.60;;;21.40;99.90;;;;;;2000059;70;21067;-88
2021/08/06 11:35:31;;;;;;;2.65;0.50;;;21.70;99.90;;;;;;2035002;70;21039;-88
2021/08/06 11:37:57;;;;;;;1.00;0.60;;;21.90;99.90;;;;;;2036489;69;21118;-87
2021/08/06 11:40:23;;;;;;;1.42;0.75;;;22.40;99.90;;;;;;2036457;70;21028;-88
2021/08/06 11:42:49;;;;;;;2.72;0.70;;;23.10;99.90;;;;;;2036675;69;21035;-89
2021/08/06 11:45:15;;;;;;;2.02;0.55;;;23.10;99.90;;;;;;2035131;69;21228;-88
2021/08/06 11:47:42;;;;;;;3.22;0.68;;;23.00;99.90;;;;;;2034508;70;21036;-89
2021/08/06 11:50:08;;;;;;;3.30;0.70;;;22.90;99.90;;;;;;2036597;70;21216;-87
2021/08/06 11:52:34;;;;;;;0.62;0.50;;;23.20;99.90;;;;;;2036102;69;21036;-87
2021/08/06 11:55:00;;;;;;;0.88;0.53;;;23.30;99.90;;;;;;2036269;70;21032;-89
2021/08/06 11:57:26;;;;;;;0.72;0.62;;;23.00;99.90;;;;;;2036238;69;21085;-87
2021/08/06 11:59:52;;;;;;;0.42;0.42;;;22.90;99.90;;;;;;2036136;70;21121;-87
2021/08/06 12:02:20;;;;;;;1.37;0.62;;;22.90;99.90;;;;;;2036379;69;21051;-88
2021/08/06 12:04:46;;;;;;;1.25;0.88;;;23.50;99.90;;;;;;2036331;69;21052;-88
2021/08/06 12:07:12;;;;;;;1.20;0.57;;;24.00;99.90;;;;;;2036372;70;21148;-86
2021/08/06 12:09:38;;;;;;;1.60;0.78;;;24.00;99.90;;;;;;2036230;70;21148;-86
2021/08/06 12:12:04;;;;;;;0.88;0.53;;;24.30;99.90;;;;;;2036408;69;21052;-88
2021/08/06 12:14:31;;;;;;;2.12;0.70;;;24.30;99.90;;;;;;2036238;70;21072;-85
2021/08/06 12:16:57;;;;;;;1.10;0.60;;;24.30;99.90;;;;;;2036224;69;21153;-86
2021/08/06 12:19:23;;;;;;;2.27;0.50;;;24.60;99.90;;;;;;2036138;69;21047;-88
2021/08/06 12:21:50;;;;;;;0.70;0.55;;;24.70;99.90;;;;;;2036253;70;21120;-86
2021/08/06 12:24:16;;;;;;;0.62;0.47;;;24.50;99.90;;;;;;2035927;70;21060;-88
2021/08/06 12:26:42;;;;;;;2.62;0.65;;;24.00;99.90;;;;;;2036163;69;21056;-88
2021/08/06 12:29:12;;;;;;;0.85;0.40;;;23.60;99.90;;;;;;2036037;70;21131;-87
2021/08/06 12:31:38;;;;;;;3.72;0.70;;;23.70;99.90;;;;;;2033966;69;21225;-87
2021/08/06 12:34:04;;;;;;;1.25;0.70;;;24.00;99.90;;;;;;2035805;70;21464;-87
2021/08/06 12:36:30;;;;;;;2.30;0.62;;;23.80;99.90;;;;;;2036455;70;21090;-86
2021/08/06 12:38:56;;;;;;;0.95;0.50;;;23.50;99.90;;;;;;2037615;70;21068;-84
2021/08/06 12:41:22;;;;;;;2.50;0.60;;;23.60;99.90;;;;;;2038140;69;21005;-86